Time;durP1;ratioP1;P1;durP2;ratioP2;P2;SDS_P1;SDS_P2;PMS_P1;PMS_P2;Temp;Humidity;BMP_temperature;BMP_pressure;BME280_temperature;BME280_humidity;BME280_pressure;Samples;Min_cycle;Max_cycle;Signal;HPM_P1;HPM_P2
2022/02/03 00:00:23;;;;;;;5.17;3.47;;;;;;;;;;5133088;27;20652;-82
2022/02/03 00:03:02;;;;;;;5.30;3.80;;;;;;;;;;5133156;28;20269;-83
2022/02/03 00:05:42;;;;;;;4.50;4.13;;;;;;;;;;5132664;28;20658;-82
2022/02/03 00:08:16;;;;;;;5.63;4.30;;;;;;;;;;5132682;28;20203;-83
2022/02/03 00:11:16;;;;;;;4.67;4.23;;;;;;;;;;5133006;28;20186;-82
2022/02/03 00:22:14;;;;;;;4.50;4.03;;;;;;;;;;5132789;28;20182;-82
2022/02/03 00:24:56;;;;;;;4.70;4.30;;;;;;;;;;5132630;28;20187;-83
2022/02/03 00:27:54;;;;;;;4.77;4.07;;;;;;;;;;5132567;27;20266;-83
2022/02/03 00:30:32;;;;;;;4.37;3.97;;;;;;;;;;5132565;27;20187;-82
2022/02/03 00:36:01;;;;;;;7.70;4.43;;;;;;;;;;5131781;27;20202;-82
2022/02/03 00:48:13;;;;;;;4.40;4.00;;;;;;;;;;5131107;27;20310;-82
2022/02/03 00:49:56;;;;;;;3.57;3.27;;;;;;;;;;5136202;27;20267;-82
2022/02/03 00:52:23;;;;;;;3.63;3.03;;;;;;;;;;5136487;27;20189;-83
2022/02/03 00:54:50;;;;;;;3.93;3.60;;;;;;;;;;5136351;27;20198;-82
2022/02/03 00:57:27;;;;;;;4.77;3.20;;;;;;;;;;5136121;27;20698;-83
2022/02/03 00:59:58;;;;;;;4.50;3.90;;;;;;;;;;5136029;27;20190;-83
2022/02/03 01:02:26;;;;;;;4.07;3.53;;;;;;;;;;5136012;27;20179;-82
2022/02/03 01:04:57;;;;;;;4.03;3.63;;;;;;;;;;5136308;27;20590;-83
2022/02/03 01:07:25;;;;;;;4.43;3.03;;;;;;;;;;5135882;27;20565;-82
2022/02/03 01:10:04;;;;;;;4.53;3.87;;;;;;;;;;5135697;27;20234;-83
2022/02/03 01:12:40;;;;;;;4.20;3.77;;;;;;;;;;5135762;27;20238;-82
2022/02/03 01:15:18;;;;;;;3.90;3.53;;;;;;;;;;5135780;27;20194;-82
2022/02/03 01:17:54;;;;;;;4.90;4.00;;;;;;;;;;5135687;27;20612;-83
2022/02/03 01:21:00;;;;;;;4.77;3.90;;;;;;;;;;5135914;27;20627;-83
2022/02/03 01:34:48;;;;;;;5.10;3.67;;;;;;;;;;5135774;27;20235;-82
2022/02/03 01:45:50;;;;;;;4.00;3.40;;;;;;;;;;5134882;27;20194;-82
2022/02/03 01:48:23;;;;;;;4.13;3.73;;;;;;;;;;5135020;27;20293;-83
2022/02/03 01:53:40;;;;;;;3.73;3.43;;;;;;;;;;5135500;27;20202;-83
2022/02/03 01:56:08;;;;;;;3.73;3.33;;;;;;;;;;5134983;27;20191;-83
2022/02/03 01:58:40;;;;;;;4.83;3.70;;;;;;;;;;5134681;27;20586;-82
2022/02/03 02:01:07;;;;;;;3.80;3.40;;;;;;;;;;5134889;27;20183;-82
2022/02/03 02:03:39;;;;;;;4.30;3.70;;;;;;;;;;5134999;27;20197;-83
2022/02/03 02:06:19;;;;;;;4.07;3.73;;;;;;;;;;5135010;27;20551;-83
2022/02/03 02:08:57;;;;;;;3.43;3.10;;;;;;;;;;5134622;27;20206;-83
2022/02/03 02:11:43;;;;;;;3.80;3.43;;;;;;;;;;5135023;27;20615;-82
2022/02/03 02:14:45;;;;;;;3.33;3.13;;;;;;;;;;5134545;27;20643;-83
2022/02/03 02:36:49;;;;;;;4.23;3.53;;;;;;;;;;5134776;27;20197;-83
2022/02/03 02:37:15;;;;;;;4.03;3.60;;;;;;;;;;5134373;27;20185;-83
2022/02/03 02:40:05;;;;;;;4.57;4.00;;;;;;;;;;5134055;27;20190;-83
2022/02/03 02:42:40;;;;;;;4.00;3.70;;;;;;;;;;5133824;27;20230;-82
2022/02/03 02:45:10;;;;;;;4.17;3.57;;;;;;;;;;5133886;27;20184;-83
2022/02/03 02:47:50;;;;;;;3.67;3.37;;;;;;;;;;5133956;27;20256;-83
2022/02/03 02:50:26;;;;;;;3.97;3.60;;;;;;;;;;5134167;27;20183;-83
2022/02/03 02:52:59;;;;;;;3.93;3.53;;;;;;;;;;5133892;27;20243;-83
2022/02/03 02:55:45;;;;;;;5.07;3.37;;;;;;;;;;5133731;27;20274;-83
2022/02/03 03:04:25;;;;;;;3.90;3.57;;;;;;;;;;5133845;27;20210;-83
2022/02/03 03:32:19;;;;;;;3.77;3.13;;;;;;;;;;5130526;27;20194;-83
2022/02/03 03:35:05;;;;;;;3.83;3.53;;;;;;;;;;5133149;27;20187;-83
2022/02/03 03:37:40;;;;;;;4.83;3.53;;;;;;;;;;5133004;27;20179;-83
2022/02/03 03:40:09;;;;;;;4.30;3.83;;;;;;;;;;5133400;27;20186;-83
2022/02/03 03:42:39;;;;;;;3.53;3.20;;;;;;;;;;5132846;27;20230;-83
2022/02/03 03:45:09;;;;;;;4.53;3.67;;;;;;;;;;5133003;27;20198;-82
2022/02/03 03:47:39;;;;;;;3.60;3.23;;;;;;;;;;5132957;27;20191;-83
2022/02/03 03:50:13;;;;;;;4.37;3.97;;;;;;;;;;5132840;28;20202;-83
2022/02/03 03:52:48;;;;;;;4.47;4.10;;;;;;;;;;5132934;27;20183;-83
2022/02/03 03:55:26;;;;;;;5.33;4.83;;;;;;;;;;5132959;27;20189;-83
2022/02/03 04:00:59;;;;;;;4.80;4.40;;;;;;;;;;5132788;27;20282;-83
2022/02/03 04:29:35;;;;;;;4.93;3.43;;;;;;;;;;5115021;28;20206;-83
2022/02/03 04:35:48;;;;;;;4.00;3.20;;;;;;;;;;5114981;28;20175;-82
2022/02/03 04:38:31;;;;;;;3.43;3.00;;;;;;;;;;5114639;28;20195;-82
2022/02/03 04:56:14;;;;;;;3.40;3.10;;;;;;;;;;5114210;27;20369;-83
2022/02/03 04:59:32;;;;;;;3.30;2.97;;;;;;;;;;5113937;28;20191;-84
2022/02/03 05:02:15;;;;;;;2.80;2.60;;;;;;;;;;5114968;28;20203;-84
2022/02/03 05:05:02;;;;;;;3.50;3.20;;;;;;;;;;5114235;28;20603;-81
2022/02/03 05:08:03;;;;;;;4.70;3.83;;;;;;;;;;5114290;28;20183;-84
2022/02/03 05:10:51;;;;;;;3.67;3.20;;;;;;;;;;5114142;28;20281;-83
2022/02/03 05:13:40;;;;;;;3.87;3.10;;;;;;;;;;5114063;28;20182;-82
2022/02/03 05:16:55;;;;;;;4.30;3.90;;;;;;;;;;5113991;28;20260;-82
2022/02/03 05:25:41;;;;;;;4.43;3.60;;;;;;;;;;5113701;28;20178;-82
2022/02/03 05:32:13;;;;;;;3.90;3.50;;;;;;;;;;5076280;28;20206;-82
2022/02/03 05:35:20;;;;;;;4.00;3.70;;;;;;;;;;5114035;28;20195;-82
2022/02/03 05:44:05;;;;;;;3.60;3.30;;;;;;;;;;5114683;28;20265;-82
2022/02/03 05:49:49;;;;;;;4.83;4.43;;;;;;;;;;5107130;28;20222;-82
2022/02/03 06:06:35;;;;;;;4.13;3.73;;;;;;;;;;5114428;27;20191;-82
2022/02/03 06:09:18;;;;;;;5.20;4.10;;;;;;;;;;5114109;28;20768;-82
2022/02/03 06:12:09;;;;;;;4.63;4.20;;;;;;;;;;5114081;28;20194;-82
2022/02/03 06:14:42;;;;;;;4.07;3.40;;;;;;;;;;5114121;28;20187;-82
2022/02/03 06:17:30;;;;;;;4.17;3.77;;;;;;;;;;5114040;28;20183;-82
2022/02/03 06:22:50;;;;;;;4.03;3.50;;;;;;;;;;5108246;27;20187;-82
2022/02/03 06:28:03;;;;;;;5.07;3.63;;;;;;;;;;5113967;28;20183;-82
2022/02/03 06:30:30;;;;;;;4.23;3.83;;;;;;;;;;5113677;28;20227;-82
2022/02/03 06:32:59;;;;;;;4.93;4.37;;;;;;;;;;5113593;28;20199;-82
2022/02/03 06:35:26;;;;;;;4.73;4.33;;;;;;;;;;5113587;28;20191;-82
2022/02/03 06:37:53;;;;;;;4.80;4.40;;;;;;;;;;5113487;28;20275;-82
2022/02/03 06:40:21;;;;;;;4.13;3.73;;;;;;;;;;5113789;28;20214;-82
2022/02/03 06:42:53;;;;;;;4.70;4.17;;;;;;;;;;5112929;28;20237;-82
2022/02/03 06:45:32;;;;;;;4.73;4.30;;;;;;;;;;5113246;28;20256;-82
2022/02/03 06:48:04;;;;;;;4.57;4.10;;;;;;;;;;5113333;28;20238;-82
2022/02/03 06:50:37;;;;;;;5.57;5.03;;;;;;;;;;5113589;28;20553;-82
2022/02/03 06:53:10;;;;;;;6.03;5.33;;;;;;;;;;5113257;28;20236;-82
2022/02/03 06:55:44;;;;;;;36.10;24.83;;;;;;;;;;5113183;28;20247;-82
2022/02/03 06:58:18;;;;;;;19.37;15.90;;;;;;;;;;5113224;28;20282;-82
2022/02/03 07:00:55;;;;;;;6.77;5.70;;;;;;;;;;5113073;28;20190;-82
2022/02/03 07:03:27;;;;;;;4.80;4.13;;;;;;;;;;5113062;28;20188;-82
2022/02/03 07:05:55;;;;;;;4.77;4.33;;;;;;;;;;5113047;27;20183;-81
2022/02/03 07:08:23;;;;;;;7.30;6.23;;;;;;;;;;5113323;28;20202;-81
2022/02/03 07:10:54;;;;;;;5.27;4.07;;;;;;;;;;5112835;28;20233;-82
2022/02/03 07:13:21;;;;;;;11.73;9.43;;;;;;;;;;5113198;28;20179;-82
2022/02/03 07:15:48;;;;;;;6.40;4.50;;;;;;;;;;5112866;28;20191;-81
2022/02/03 07:18:16;;;;;;;5.73;4.53;;;;;;;;;;5112868;28;20196;-82
2022/02/03 07:20:44;;;;;;;5.23;4.73;;;;;;;;;;5113038;28;20631;-82
2022/02/03 07:23:12;;;;;;;5.30;4.80;;;;;;;;;;5112713;28;20191;-82
2022/02/03 07:25:39;;;;;;;5.00;4.60;;;;;;;;;;5112637;28;20278;-82
2022/02/03 07:28:08;;;;;;;5.03;4.57;;;;;;;;;;5113045;27;20287;-82
2022/02/03 07:30:36;;;;;;;10.00;8.47;;;;;;;;;;5112552;28;20219;-82
2022/02/03 07:33:04;;;;;;;15.13;12.53;;;;;;;;;;5112589;28;20199;-82
2022/02/03 07:35:33;;;;;;;12.87;8.43;;;;;;;;;;5112539;28;20199;-81
2022/02/03 07:38:05;;;;;;;6.73;5.63;;;;;;;;;;5111660;28;20214;-81
2022/02/03 07:40:32;;;;;;;15.00;10.90;;;;;;;;;;5111002;28;20195;-81
2022/02/03 07:43:02;;;;;;;14.57;11.60;;;;;;;;;;5112131;28;20322;-82
2022/02/03 07:45:30;;;;;;;9.80;7.47;;;;;;;;;;5112524;28;20184;-81
2022/02/03 07:47:57;;;;;;;6.93;5.63;;;;;;;;;;5112397;28;20583;-82
2022/02/03 07:50:25;;;;;;;7.73;6.60;;;;;;;;;;5112660;28;20580;-82
2022/02/03 07:52:52;;;;;;;9.50;8.07;;;;;;;;;;5112697;28;20191;-82
2022/02/03 07:55:22;;;;;;;12.23;10.17;;;;;;;;;;5112091;28;20672;-82
2022/02/03 07:57:51;;;;;;;10.83;8.53;;;;;;;;;;5112944;28;20244;-81
2022/02/03 08:00:20;;;;;;;16.00;14.30;;;;;;;;;;5112330;28;20191;-82
2022/02/03 08:02:47;;;;;;;15.33;11.90;;;;;;;;;;5112636;28;20547;-82
2022/02/03 08:05:18;;;;;;;8.73;7.27;;;;;;;;;;5112547;28;20196;-82
2022/02/03 08:07:50;;;;;;;5.67;5.10;;;;;;;;;;5112261;28;20675;-82
2022/02/03 08:10:34;;;;;;;7.80;6.70;;;;;;;;;;5112188;28;20224;-82
2022/02/03 08:13:04;;;;;;;5.73;4.50;;;;;;;;;;5112537;28;20180;-81
2022/02/03 08:15:33;;;;;;;4.97;4.47;;;;;;;;;;5112070;28;20203;-81
2022/02/03 08:18:04;;;;;;;5.23;4.73;;;;;;;;;;5112212;28;20286;-81
2022/02/03 08:20:32;;;;;;;6.63;5.80;;;;;;;;;;5112164;28;20187;-81
2022/02/03 08:23:15;;;;;;;5.87;5.00;;;;;;;;;;5112049;28;20672;-81
2022/02/03 08:25:50;;;;;;;8.27;7.00;;;;;;;;;;5112025;28;20648;-81
2022/02/03 08:28:41;;;;;;;3.67;3.37;;;;;;;;;;5112191;28;20188;-81
2022/02/03 08:31:11;;;;;;;4.80;3.87;;;;;;;;;;5112496;28;20200;-81
2022/02/03 08:33:39;;;;;;;5.70;5.10;;;;;;;;;;5112097;28;20196;-81
2022/02/03 08:36:07;;;;;;;9.97;6.40;;;;;;;;;;5111971;28;20662;-81
2022/02/03 08:38:46;;;;;;;6.10;5.33;;;;;;;;;;5111971;28;20221;-81
2022/02/03 08:41:15;;;;;;;8.90;8.00;;;;;;;;;;5111973;28;20632;-81
2022/02/03 08:43:43;;;;;;;6.03;5.43;;;;;;;;;;5111752;28;20661;-81
2022/02/03 08:46:12;;;;;;;4.43;4.03;;;;;;;;;;5111903;28;20195;-82
2022/02/03 08:48:40;;;;;;;4.97;4.50;;;;;;;;;;5111869;28;20196;-82
2022/02/03 08:51:08;;;;;;;5.93;5.33;;;;;;;;;;5111724;28;20726;-82
2022/02/03 08:53:39;;;;;;;5.80;4.90;;;;;;;;;;5111823;28;20253;-82
2022/02/03 08:56:20;;;;;;;5.10;4.60;;;;;;;;;;5112235;28;20663;-81
2022/02/03 09:30:08;;;;;;;5.07;4.57;;;;;;;;;;5115084;28;20561;-81
2022/02/03 09:35:27;;;;;;;6.53;5.90;;;;;;;;;;5115308;28;20559;-81
2022/02/03 09:38:07;;;;;;;5.17;4.47;;;;;;;;;;5114642;28;20198;-81
2022/02/03 09:41:01;;;;;;;4.60;4.03;;;;;;;;;;5114815;28;20675;-81
2022/02/03 09:52:19;;;;;;;4.60;2.97;;;;;;;;;;5114890;28;20207;-82
2022/02/03 09:57:50;;;;;;;4.47;4.07;;;;;;;;;;5112480;27;20234;-82
2022/02/03 10:00:41;;;;;;;3.50;3.20;;;;;;;;;;5115078;28;20533;-82
2022/02/03 10:03:13;;;;;;;4.37;3.97;;;;;;;;;;5114407;28;20196;-82
2022/02/03 10:05:56;;;;;;;4.50;4.10;;;;;;;;;;5114910;28;20180;-83
2022/02/03 10:08:25;;;;;;;4.27;3.87;;;;;;;;;;5115028;28;20196;-81
2022/02/03 10:11:10;;;;;;;3.50;3.17;;;;;;;;;;5114017;28;20811;-82
2022/02/03 10:13:42;;;;;;;6.00;3.27;;;;;;;;;;5114185;27;20188;-81
2022/02/03 10:16:09;;;;;;;4.37;3.97;;;;;;;;;;5114387;28;20206;-81
2022/02/03 10:18:37;;;;;;;4.47;3.33;;;;;;;;;;5113905;28;20196;-81
2022/02/03 10:21:09;;;;;;;2.80;2.60;;;;;;;;;;5113940;28;20621;-81
2022/02/03 10:23:52;;;;;;;4.00;3.70;;;;;;;;;;5113963;28;20274;-81
2022/02/03 10:26:19;;;;;;;3.93;3.17;;;;;;;;;;5114158;28;20599;-81
2022/02/03 10:28:53;;;;;;;3.43;2.70;;;;;;;;;;5113754;28;20758;-81
2022/02/03 10:31:24;;;;;;;5.73;5.03;;;;;;;;;;5114020;28;20307;-80
2022/02/03 10:34:01;;;;;;;4.30;3.90;;;;;;;;;;5113687;28;20184;-81
2022/02/03 10:36:49;;;;;;;3.17;2.93;;;;;;;;;;5113991;28;20187;-81
2022/02/03 10:42:19;;;;;;;3.70;3.40;;;;;;;;;;5100264;27;20263;-81
2022/02/03 10:48:09;;;;;;;4.70;4.30;;;;;;;;;;5078938;28;20292;-81
2022/02/03 10:50:53;;;;;;;3.33;2.77;;;;;;;;;;5113220;28;20255;-81
2022/02/03 10:53:39;;;;;;;4.53;3.40;;;;;;;;;;5113687;28;20187;-81
2022/02/03 10:56:20;;;;;;;3.30;3.03;;;;;;;;;;5113202;28;20190;-81
2022/02/03 10:59:08;;;;;;;3.70;3.00;;;;;;;;;;5113237;28;20266;-81
2022/02/03 11:01:49;;;;;;;3.80;3.50;;;;;;;;;;5113316;28;20656;-81
2022/02/03 11:07:04;;;;;;;3.20;3.00;;;;;;;;;;5113499;28;20597;-81
2022/02/03 11:09:47;;;;;;;3.40;3.10;;;;;;;;;;5113025;28;20571;-81
2022/02/03 11:12:21;;;;;;;4.37;3.23;;;;;;;;;;5113040;28;20194;-81
2022/02/03 11:14:48;;;;;;;4.63;4.03;;;;;;;;;;5113252;28;20199;-81
2022/02/03 11:17:18;;;;;;;4.13;3.73;;;;;;;;;;5112861;28;20199;-81
2022/02/03 11:19:49;;;;;;;3.13;2.90;;;;;;;;;;5112765;28;20199;-81
2022/02/03 11:22:22;;;;;;;4.70;3.53;;;;;;;;;;5112890;28;20191;-81
2022/02/03 11:25:04;;;;;;;4.37;3.80;;;;;;;;;;5113122;28;20183;-81
2022/02/03 11:27:46;;;;;;;3.13;2.93;;;;;;;;;;5112784;28;20543;-81
2022/02/03 11:33:35;;;;;;;5.77;5.10;;;;;;;;;;5086443;28;20241;-81
2022/02/03 11:36:27;;;;;;;3.60;3.27;;;;;;;;;;5112444;28;20192;-81
2022/02/03 11:39:30;;;;;;;3.50;3.20;;;;;;;;;;5112647;28;20200;-81
2022/02/03 11:47:56;;;;;;;4.57;3.20;;;;;;;;;;5112266;27;20198;-81
2022/02/03 11:50:53;;;;;;;4.87;4.43;;;;;;;;;;5112425;28;20302;-81
2022/02/03 11:53:51;;;;;;;4.17;3.73;;;;;;;;;;5112763;28;20301;-82
2022/02/03 12:02:55;;;;;;;5.47;3.70;;;;;;;;;;5107183;27;20252;-81
2022/02/03 12:11:46;;;;;;;4.73;3.73;;;;;;;;;;5112165;28;20654;-81
2022/02/03 12:14:45;;;;;;;4.17;3.77;;;;;;;;;;5112236;28;20184;-81
2022/02/03 12:20:19;;;;;;;2.97;2.77;;;;;;;;;;5112117;27;20630;-81
2022/02/03 12:23:01;;;;;;;6.33;4.43;;;;;;;;;;5112412;28;20203;-81
2022/02/03 12:25:42;;;;;;;7.67;5.93;;;;;;;;;;5112538;28;20191;-81
2022/02/03 12:28:21;;;;;;;6.10;5.33;;;;;;;;;;5112369;28;20216;-81
2022/02/03 12:39:11;;;;;;;7.10;6.40;;;;;;;;;;5112198;28;20179;-81
2022/02/03 12:41:42;;;;;;;6.63;5.97;;;;;;;;;;5112098;28;20641;-81
2022/02/03 12:44:18;;;;;;;6.47;4.00;;;;;;;;;;5116180;28;20187;-81
2022/02/03 12:46:45;;;;;;;6.67;5.63;;;;;;;;;;5115467;28;20180;-81
2022/02/03 12:49:15;;;;;;;4.70;4.17;;;;;;;;;;5115778;28;20663;-81
2022/02/03 12:51:42;;;;;;;24.23;18.27;;;;;;;;;;5115583;28;20311;-81
2022/02/03 12:54:11;;;;;;;13.57;10.97;;;;;;;;;;5115906;28;20195;-81
2022/02/03 12:56:38;;;;;;;6.20;5.53;;;;;;;;;;5115726;28;20276;-82
2022/02/03 12:59:09;;;;;;;3.70;3.40;;;;;;;;;;5115815;28;20191;-82
2022/02/03 13:01:39;;;;;;;7.50;6.13;;;;;;;;;;5115551;28;20219;-81
2022/02/03 13:04:12;;;;;;;5.77;4.87;;;;;;;;;;5115775;28;20207;-81
2022/02/03 13:06:45;;;;;;;3.93;3.53;;;;;;;;;;5115413;28;20664;-82
2022/02/03 13:09:13;;;;;;;5.77;5.17;;;;;;;;;;5115407;28;20184;-82
2022/02/03 13:11:44;;;;;;;7.07;5.67;;;;;;;;;;5115193;28;20225;-82
2022/02/03 13:14:24;;;;;;;22.73;14.37;;;;;;;;;;5115672;28;20628;-82
2022/02/03 13:16:57;;;;;;;21.07;15.33;;;;;;;;;;5115258;28;20183;-81
2022/02/03 13:19:33;;;;;;;7.60;6.50;;;;;;;;;;5115183;28;20578;-81
2022/02/03 13:22:12;;;;;;;4.33;3.37;;;;;;;;;;5115095;28;20564;-81
2022/02/03 13:25:05;;;;;;;5.40;4.90;;;;;;;;;;5115099;28;20274;-82
2022/02/03 13:27:40;;;;;;;6.33;5.43;;;;;;;;;;5115055;28;20195;-81
2022/02/03 13:30:13;;;;;;;7.83;6.10;;;;;;;;;;5115357;28;20693;-81
2022/02/03 13:32:44;;;;;;;4.33;3.63;;;;;;;;;;5114897;28;20675;-81
2022/02/03 13:35:24;;;;;;;3.27;2.70;;;;;;;;;;5114945;28;20195;-82
2022/02/03 13:37:57;;;;;;;3.97;2.77;;;;;;;;;;5115155;28;20565;-81
2022/02/03 13:40:27;;;;;;;4.13;3.03;;;;;;;;;;5114766;28;20188;-81
2022/02/03 13:43:00;;;;;;;3.23;2.93;;;;;;;;;;5114541;28;20332;-81
2022/02/03 13:45:28;;;;;;;2.97;2.60;;;;;;;;;;5114960;28;20266;-82
2022/02/03 13:47:55;;;;;;;3.27;2.83;;;;;;;;;;5114889;28;20579;-81
2022/02/03 13:50:25;;;;;;;3.23;2.93;;;;;;;;;;5114848;28;20191;-81
2022/02/03 13:52:59;;;;;;;3.33;3.03;;;;;;;;;;5114077;28;20270;-82
2022/02/03 14:15:35;;;;;;;4.37;3.10;;;;;;;;;;5151623;27;20546;-81
2022/02/03 14:21:00;;;;;;;3.43;2.67;;;;;;;;;;5143625;27;20691;-81
2022/02/03 14:28:52;;;;;;;4.93;4.30;;;;;;;;;;5150937;27;20658;-81
2022/02/03 14:31:21;;;;;;;3.77;3.17;;;;;;;;;;5150753;27;20198;-81
2022/02/03 14:33:48;;;;;;;2.67;2.47;;;;;;;;;;5150524;27;20218;-81
2022/02/03 14:36:19;;;;;;;4.13;2.87;;;;;;;;;;5150892;27;20220;-81
2022/02/03 14:38:53;;;;;;;3.40;2.57;;;;;;;;;;5150949;27;20650;-81
2022/02/03 14:41:25;;;;;;;3.27;2.77;;;;;;;;;;5150513;27;20312;-81
2022/02/03 14:43:53;;;;;;;6.87;5.87;;;;;;;;;;5150490;27;20247;-81
2022/02/03 14:46:22;;;;;;;5.20;4.70;;;;;;;;;;5150451;27;20285;-81
2022/02/03 14:48:50;;;;;;;4.87;4.10;;;;;;;;;;5150341;27;20201;-81
2022/02/03 14:51:21;;;;;;;8.13;4.90;;;;;;;;;;5150247;27;20204;-81
2022/02/03 14:53:56;;;;;;;5.07;3.77;;;;;;;;;;5150281;27;20289;-81
2022/02/03 14:59:08;;;;;;;5.27;3.80;;;;;;;;;;5150923;27;20584;-81
2022/02/03 15:01:38;;;;;;;5.20;4.70;;;;;;;;;;5150406;27;20280;-81
2022/02/03 15:04:10;;;;;;;4.37;3.80;;;;;;;;;;5150109;27;20189;-81
2022/02/03 15:06:39;;;;;;;3.90;3.50;;;;;;;;;;5150026;27;20661;-81
2022/02/03 15:09:20;;;;;;;4.03;3.67;;;;;;;;;;5150098;27;20195;-81
2022/02/03 15:12:02;;;;;;;5.57;4.50;;;;;;;;;;5150354;27;20182;-81
2022/02/03 15:14:31;;;;;;;10.37;7.17;;;;;;;;;;5149787;27;20283;-81
2022/02/03 15:17:00;;;;;;;13.47;8.80;;;;;;;;;;5150128;27;20190;-81
2022/02/03 15:19:27;;;;;;;9.47;7.27;;;;;;;;;;5150134;27;20631;-82
2022/02/03 15:21:54;;;;;;;23.60;14.57;;;;;;;;;;5150033;27;20623;-81
2022/02/03 15:24:21;;;;;;;35.57;22.53;;;;;;;;;;5148722;27;20213;-81
2022/02/03 15:26:48;;;;;;;55.00;31.77;;;;;;;;;;5135763;27;20605;-81
2022/02/03 15:29:16;;;;;;;25.70;17.13;;;;;;;;;;5136112;27;20195;-81
2022/02/03 15:31:43;;;;;;;5.53;5.07;;;;;;;;;;5132201;27;20715;-81
2022/02/03 15:34:17;;;;;;;5.43;4.93;;;;;;;;;;5135812;27;20593;-81
2022/02/03 15:36:52;;;;;;;5.47;4.97;;;;;;;;;;5147318;27;20284;-80
2022/02/03 15:39:23;;;;;;;7.47;6.70;;;;;;;;;;5156592;27;20573;-83
2022/02/03 15:41:52;;;;;;;11.87;8.50;;;;;;;;;;5156448;27;20288;-82
2022/02/03 15:44:21;;;;;;;7.57;6.20;;;;;;;;;;5156442;27;20194;-84
2022/02/03 15:47:00;;;;;;;6.73;5.47;;;;;;;;;;5155973;27;20247;-82
2022/02/03 16:01:08;;;;;;;5.23;4.67;;;;;;;;;;5130370;27;20202;-82
2022/02/03 16:03:41;;;;;;;5.87;4.50;;;;;;;;;;5143500;27;20198;-83
2022/02/03 16:17:22;;;;;;;8.87;7.97;;;;;;;;;;5071672;28;20204;-83
2022/02/03 16:19:57;;;;;;;9.43;6.93;;;;;;;;;;5071415;28;20698;-84
2022/02/03 16:22:36;;;;;;;6.67;6.03;;;;;;;;;;5092384;28;20236;-85
2022/02/03 16:25:09;;;;;;;23.93;14.67;;;;;;;;;;5114029;28;20191;-84
2022/02/03 16:52:43;;;;;;;8.10;7.30;;;;;;;;;;5113698;28;20782;-84
2022/02/03 16:55:15;;;;;;;10.70;8.90;;;;;;;;;;5113844;28;20207;-85
2022/02/03 16:57:42;;;;;;;11.33;10.03;;;;;;;;;;5113699;28;20195;-85
2022/02/03 17:00:13;;;;;;;9.87;8.90;;;;;;;;;;5113740;28;20261;-84
2022/02/03 17:02:41;;;;;;;8.00;7.20;;;;;;;;;;5113387;27;20274;-83
2022/02/03 17:05:09;;;;;;;8.97;8.07;;;;;;;;;;5113658;28;20582;-84
2022/02/03 17:07:36;;;;;;;21.07;15.97;;;;;;;;;;5113582;28;20202;-83
2022/02/03 17:10:05;;;;;;;36.43;25.60;;;;;;;;;;5113426;28;20674;-84
2022/02/03 17:12:33;;;;;;;21.07;16.33;;;;;;;;;;5113504;28;20200;-85
2022/02/03 17:15:01;;;;;;;16.30;14.47;;;;;;;;;;5113191;27;20235;-85
2022/02/03 17:17:28;;;;;;;15.57;13.97;;;;;;;;;;5113118;28;20201;-84
2022/02/03 17:19:55;;;;;;;15.97;12.97;;;;;;;;;;5113021;28;20701;-84
2022/02/03 17:22:29;;;;;;;34.00;27.63;;;;;;;;;;5113382;28;20199;-84
2022/02/03 17:25:04;;;;;;;16.67;14.53;;;;;;;;;;5113002;28;20188;-83
2022/02/03 17:27:37;;;;;;;12.03;10.47;;;;;;;;;;5113275;28;20273;-84
2022/02/03 17:30:11;;;;;;;10.67;9.37;;;;;;;;;;5113238;28;20268;-82
2022/02/03 18:03:25;;;;;;;18.30;12.33;;;;;;;;;;5132747;27;20266;-80
2022/02/03 18:08:47;;;;;;;8.77;7.87;;;;;;;;;;5131960;27;20203;-79
2022/02/03 18:11:29;;;;;;;8.00;6.57;;;;;;;;;;5133209;27;20631;-80
2022/02/03 18:30:24;;;;;;;4.83;3.97;;;;;;;;;;5133008;28;20262;-80
2022/02/03 18:33:14;;;;;;;4.73;4.03;;;;;;;;;;5132640;28;20187;-79
2022/02/03 18:50:01;;;;;;;4.03;3.63;;;;;;;;;;5132506;28;20207;-79
2022/02/03 18:52:42;;;;;;;4.17;3.77;;;;;;;;;;5132707;27;20187;-80
2022/02/03 18:55:17;;;;;;;6.10;5.50;;;;;;;;;;5132676;28;20206;-79
2022/02/03 18:57:52;;;;;;;11.50;9.70;;;;;;;;;;5132341;28;20191;-80
2022/02/03 19:03:14;;;;;;;19.23;16.33;;;;;;;;;;5136304;27;20265;-80
2022/02/03 20:03:51;;;;;;;8.00;6.43;;;;;;;;;;5120445;27;20195;-79
2022/02/03 20:06:32;;;;;;;6.63;5.47;;;;;;;;;;5134280;27;20236;-79
2022/02/03 20:09:07;;;;;;;19.40;12.17;;;;;;;;;;5134002;27;20179;-80
2022/02/03 20:11:36;;;;;;;24.93;19.77;;;;;;;;;;5133605;27;20199;-80
2022/02/03 20:14:12;;;;;;;15.07;11.47;;;;;;;;;;5133818;27;20279;-80
2022/02/03 20:16:39;;;;;;;9.33;7.30;;;;;;;;;;5134283;27;20186;-80
2022/02/03 20:19:07;;;;;;;8.53;6.70;;;;;;;;;;5133719;27;20194;-80
2022/02/03 20:21:34;;;;;;;8.17;5.93;;;;;;;;;;5133710;27;20667;-80
2022/02/03 20:24:03;;;;;;;6.63;5.93;;;;;;;;;;5133189;27;20195;-79
2022/02/03 20:26:31;;;;;;;6.20;5.60;;;;;;;;;;5133556;27;20201;-80
2022/02/03 20:28:58;;;;;;;6.80;5.07;;;;;;;;;;5133508;27;20198;-80
2022/02/03 20:31:26;;;;;;;6.33;4.90;;;;;;;;;;5134045;27;20206;-80
2022/02/03 20:33:54;;;;;;;8.33;5.03;;;;;;;;;;5133403;27;20195;-80
2022/02/03 20:36:22;;;;;;;7.10;5.30;;;;;;;;;;5133383;27;20199;-80
2022/02/03 20:38:51;;;;;;;5.37;4.93;;;;;;;;;;5133167;27;20207;-80
2022/02/03 20:41:18;;;;;;;5.40;4.90;;;;;;;;;;5133642;27;20194;-80
2022/02/03 20:43:45;;;;;;;5.20;4.23;;;;;;;;;;5133226;27;20190;-80
2022/02/03 20:46:13;;;;;;;7.33;4.83;;;;;;;;;;5133178;27;20190;-80
2022/02/03 20:48:45;;;;;;;6.07;4.60;;;;;;;;;;5133186;27;20725;-80
2022/02/03 20:51:14;;;;;;;6.23;4.87;;;;;;;;;;5132811;27;20179;-80
2022/02/03 20:53:41;;;;;;;4.80;4.33;;;;;;;;;;5133077;27;20930;-80
2022/02/03 20:56:08;;;;;;;6.70;5.17;;;;;;;;;;5133258;27;20230;-80
2022/02/03 20:58:35;;;;;;;4.93;4.23;;;;;;;;;;5132948;27;20191;-80
2022/02/03 21:01:10;;;;;;;5.30;4.80;;;;;;;;;;5132949;27;20681;-80
2022/02/03 21:03:40;;;;;;;4.83;4.07;;;;;;;;;;5132402;27;20250;-80
2022/02/03 21:06:12;;;;;;;4.23;3.80;;;;;;;;;;5132872;27;20234;-80
2022/02/03 21:08:42;;;;;;;5.13;4.17;;;;;;;;;;5133017;27;20195;-81
2022/02/03 21:11:09;;;;;;;4.07;3.60;;;;;;;;;;5132764;27;20278;-80
2022/02/03 21:13:37;;;;;;;5.67;5.07;;;;;;;;;;5132802;27;20222;-81
2022/02/03 21:16:06;;;;;;;5.23;4.60;;;;;;;;;;5132387;27;20221;-80
2022/02/03 21:18:38;;;;;;;5.13;4.63;;;;;;;;;;5132261;27;20194;-80
2022/02/03 21:21:05;;;;;;;6.17;5.57;;;;;;;;;;5132462;27;20191;-82
2022/02/03 21:23:34;;;;;;;5.03;4.63;;;;;;;;;;5131863;27;20195;-80
2022/02/03 21:26:03;;;;;;;6.33;4.07;;;;;;;;;;5132620;27;20701;-81
2022/02/03 21:28:32;;;;;;;5.00;4.27;;;;;;;;;;5125859;27;20203;-80
2022/02/03 21:31:01;;;;;;;4.40;4.00;;;;;;;;;;5115181;27;20203;-80
2022/02/03 21:33:32;;;;;;;6.43;5.30;;;;;;;;;;5112148;28;20608;-80
2022/02/03 21:36:07;;;;;;;6.13;4.80;;;;;;;;;;5112005;28;20262;-81
2022/02/03 21:38:37;;;;;;;4.83;4.33;;;;;;;;;;5111855;28;20274;-81
2022/02/03 21:41:05;;;;;;;6.20;4.83;;;;;;;;;;5111862;28;20252;-81
2022/02/03 21:43:33;;;;;;;6.03;4.17;;;;;;;;;;5111251;28;20202;-80
2022/02/03 21:46:00;;;;;;;5.53;4.63;;;;;;;;;;5112353;28;20191;-81
2022/02/03 21:48:27;;;;;;;6.67;5.30;;;;;;;;;;5115396;27;20199;-81
2022/02/03 21:50:55;;;;;;;6.67;5.03;;;;;;;;;;5121434;27;20673;-81
2022/02/03 21:53:25;;;;;;;6.10;5.00;;;;;;;;;;5112517;28;20710;-81
2022/02/03 21:55:55;;;;;;;5.53;4.87;;;;;;;;;;5112457;28;20207;-81
2022/02/03 21:58:25;;;;;;;4.97;4.47;;;;;;;;;;5112446;28;20283;-81
2022/02/03 22:00:53;;;;;;;4.80;4.40;;;;;;;;;;5112401;28;20191;-81
2022/02/03 22:03:21;;;;;;;7.83;4.73;;;;;;;;;;5112693;28;20195;-81
2022/02/03 22:05:48;;;;;;;4.70;4.10;;;;;;;;;;5112701;28;20272;-82
2022/02/03 22:08:15;;;;;;;5.90;4.67;;;;;;;;;;5112316;28;20642;-82
2022/02/03 22:10:42;;;;;;;8.40;4.93;;;;;;;;;;5112801;28;20215;-81
2022/02/03 22:13:11;;;;;;;4.47;4.07;;;;;;;;;;5112268;28;20314;-81
2022/02/03 22:15:40;;;;;;;5.00;4.50;;;;;;;;;;5112253;28;20309;-80
2022/02/03 22:18:12;;;;;;;7.03;3.90;;;;;;;;;;5112282;28;20187;-81
2022/02/03 22:20:43;;;;;;;6.43;5.10;;;;;;;;;;5112342;28;20183;-81
2022/02/03 22:23:22;;;;;;;5.80;5.17;;;;;;;;;;5112321;28;20187;-81
2022/02/03 22:26:23;;;;;;;6.57;5.67;;;;;;;;;;5112191;28;20678;-81
2022/02/03 22:40:46;;;;;;;6.43;5.30;;;;;;;;;;5116407;28;20235;-81
2022/02/03 22:43:06;;;;;;;5.03;4.10;;;;;;;;;;5116065;28;20192;-81
2022/02/03 22:45:51;;;;;;;5.37;4.80;;;;;;;;;;5117092;28;20202;-80
2022/02/03 22:48:25;;;;;;;6.30;4.63;;;;;;;;;;5116352;28;20215;-81
2022/02/03 22:50:53;;;;;;;4.60;4.20;;;;;;;;;;5116393;28;20194;-81
2022/02/03 22:53:21;;;;;;;5.37;4.87;;;;;;;;;;5116219;28;20634;-81
2022/02/03 22:55:48;;;;;;;4.93;4.43;;;;;;;;;;5116179;28;20227;-80
2022/02/03 22:58:36;;;;;;;5.13;4.40;;;;;;;;;;5115807;28;20203;-81
2022/02/03 23:01:06;;;;;;;7.30;4.60;;;;;;;;;;5116229;28;20191;-81
2022/02/03 23:03:35;;;;;;;5.90;4.33;;;;;;;;;;5116350;28;20191;-81
2022/02/03 23:06:03;;;;;;;5.13;4.63;;;;;;;;;;5115940;28;20207;-81
2022/02/03 23:08:38;;;;;;;6.10;4.90;;;;;;;;;;5115971;28;20195;-80
2022/02/03 23:11:14;;;;;;;5.60;4.63;;;;;;;;;;5115741;28;20286;-80
2022/02/03 23:16:47;;;;;;;4.90;4.40;;;;;;;;;;5112234;27;20222;-80
2022/02/03 23:19:38;;;;;;;7.17;4.33;;;;;;;;;;5115499;28;20266;-81
2022/02/03 23:22:11;;;;;;;6.03;4.47;;;;;;;;;;5115482;28;20194;-80
2022/02/03 23:24:39;;;;;;;5.20;3.83;;;;;;;;;;5115520;28;20195;-80